首页
METAR-TAF:

METAR-TAF

机场 :

Farmingdale, 紐約州, 美国

纬度: 40-44-03N, 经度: 073-25-01W, 海拔: 24米

当前天气观测

该预报发布于1小时和5分钟前的14:53 UTC
风速6节,风向东南
温度 0°C
湿度 55%
气压 1035 hPa
能見度: 16.1公里
天空无云

METAR: KFRG 081453Z 14006KT 10SM CLR 00/M08 A3055 RMK AO2 SLP346 T00001083 50002

时间: 10:58 (15:58 UTC)


TAF: 丢失

超过4000个机场的气象观测和天气预报(METAR&TAF报告)。

可查询的气象台以黄色和红色小点在地图上表示。

将鼠标移到小点上方,可查看气象台名称。

然后点击查看天气观测和预报。

如需切换地图:点击带黑十字的绿色按钮放大地图;点击带横线的绿色按钮缩小地图;或者点击绿色箭头查看邻近地区的地图。


METAR-TAF: